Disclaimer

Please do not use the information listed here in-flight or in-navigation, as they are not provided to us by the airports but are provided by volunteers, so they might be outdated.

Search


Regions


Airport information page

Radio informations:
FOZ TWR - 118.8 MHz
FOZ APP - 119.15 MHz

Airport informations:
Latitude: 25° 35' 46.14" S
Longitude: 054° 29' 13.94" W
Elevation: 787 feet - 240 meters
Operating hours: 24 hour operations
Operating agency: Civil government, landing fees and diplomatic clearance may be required
Timezone: UTC-3(-2DT)
Fuel: Jet A1, without icing nhibitor.

100/130 octane gasoline, leaded, MIL-L-5572F (GREEN)

Runway information:
14/32 - 7201 x 148 feet< - >2195 x 45 meters

Recent METARs:
SBFI 210700Z 15007KT CAVOK 20/19 Q1014
SBFI 210700Z 15007KT CAVOK 20/19 Q1014
SBFI 210800Z 09008KT CAVOK 20/18 Q1015

Airport on the map: